Briefing drone pour Selongey

Rechercher une autre localisation

Conditions de vol :


Nous sommes le : Jeudi 08 décembre 2022
Il est 21:59 UTC (22:59 LT)

Lever de soleil : 06:48 UTC (07:48 LT)
Coucher de soleil : 16:13 UTC (17:13 LT)

Météo

L'essentiel des conditions de vol

VIGILANCE MÉTÉO FRANCE - Côte-dOr (21)
Vigilance Jaune : Neige-verglas
METAR de LFSD
LFSD 082130Z AUTO 02007KT 340V040 4800 BR OVC002 M02/M02 Q1006

Date d'émission: 08/12/2022
Heure d'émission: 21:30 UTC
Vent: 020° (variable du 340° au 040°) pour 7 KT (13 km/h)
Visibilité horizontale: 4800 m
Plafond :
- Couvert à 200ft (61m)
Température: -2 °C
Point de rosée: -2 °C
Humidité: 100%
Pression (QNH): 1006 hPa
Conditions: Brume
TAF de LFSD
LFSD 010600Z 0100/0124 CNL

Conditions prévues :

Heure d'émission : Bulletin éffectué le 01 à 00:00 UTC
Prévision : Valide du 01 a 00:00 UTC au 01 a 23:59 UTC
Nuages : à 0ft (0 m)
WEBCAM POUR SELONGEY

Réglementation

Voler en sécurité

CARTES AERONAUTIQUE 1/500.000
CARTE AZBA (Reseau basse altitude)
CARTES VAC (LFSD)
SUP AIP




Chargement des AIP...
NOTAM (SELONGEY + Terrain à proximité / FIR )




Chargement des NOTAMS...
CONTACT PREFECTURE 21
Côte-dOr (21) : pref-drone@cote-dor.gouv.fr


Avertissement : Les données mises à disposition sont indicatives. Oxygène Drone ne pourra être tenu responsable de dégâts causés aux biens et aux personnes.